Time;durP1;ratioP1;P1;durP2;ratioP2;P2;SDS_P1;SDS_P2;PMS_P1;PMS_P2;Temp;Humidity;BMP_temperature;BMP_pressure;BME280_temperature;BME280_humidity;BME280_pressure;Samples;Min_cycle;Max_cycle;Signal;HPM_P1;HPM_P2
2022/10/14 00:01:54;;;;;;;;;1.67;1.67;;;;;23.58;44.00;101274.66;5076115;27;45375;-73
2022/10/14 00:04:19;;;;;;;;;2.00;2.00;;;;;23.60;44.19;101271.84;5076162;27;46246;-72
2022/10/14 00:06:45;;;;;;;;;1.00;1.00;;;;;23.59;44.16;101265.72;5076016;27;45449;-73
2022/10/14 00:09:10;;;;;;;;;2.00;2.00;;;;;23.61;44.06;101278.78;5075843;27;45818;-73
2022/10/14 00:11:36;;;;;;;;;2.00;2.00;;;;;23.61;43.87;101274.31;5075983;27;45496;-73
2022/10/14 00:14:06;;;;;;;;;2.00;1.00;;;;;23.61;44.20;101268.16;5075803;27;46202;-72
2022/10/14 00:16:35;;;;;;;;;2.00;2.00;;;;;23.60;44.02;101264.69;5075664;27;45276;-73
2022/10/14 00:19:01;;;;;;;;;0.67;0.67;;;;;23.62;44.28;101259.22;5075715;27;45374;-73
2022/10/14 00:21:28;;;;;;;;;4.00;2.00;;;;;23.61;44.35;101266.34;5075803;27;45436;-73
2022/10/14 00:23:54;;;;;;;;;1.00;1.00;;;;;23.61;44.32;101257.53;5074863;27;46243;-73
2022/10/14 00:26:23;;;;;;;;;3.00;1.00;;;;;23.62;43.92;101261.88;5057219;27;45499;-73
2022/10/14 00:28:49;;;;;;;;;1.00;1.00;;;;;23.62;43.98;101259.22;5075927;27;45353;-73
2022/10/14 00:31:16;;;;;;;;;2.00;2.00;;;;;23.61;43.94;101253.06;5075906;27;45422;-72
2022/10/14 00:33:42;;;;;;;;;1.67;1.67;;;;;23.57;44.16;101249.13;5075873;27;47042;-73
2022/10/14 00:36:10;;;;;;;;;1.00;1.00;;;;;23.61;43.99;101257.53;5075396;27;45433;-73
2022/10/14 00:38:36;;;;;;;;;1.00;1.00;;;;;23.54;44.03;101240.69;5075665;27;45293;-73
2022/10/14 00:41:02;;;;;;;;;3.33;2.00;;;;;23.56;44.16;101241.31;5075375;27;45405;-72
2022/10/14 00:43:28;;;;;;;;;2.00;1.00;;;;;23.59;44.14;101240.97;5072915;27;45228;-73
2022/10/14 00:45:54;;;;;;;;;1.00;1.00;;;;;23.60;44.07;101248.75;5063811;27;45257;-73
2022/10/14 00:48:23;;;;;;;;;2.00;2.00;;;;;23.61;44.04;101249.56;5075419;27;45250;-73
2022/10/14 00:50:53;;;;;;;;;1.00;1.00;;;;;23.60;43.75;101251.41;5075754;27;45680;-72
2022/10/14 00:53:19;;;;;;;;;1.67;1.67;;;;;23.59;43.99;101249.78;5075431;27;45341;-73
2022/10/14 00:55:44;;;;;;;;;2.33;2.00;;;;;23.59;44.12;101246.28;5075001;27;45376;-73
2022/10/14 00:58:10;;;;;;;;;1.33;1.33;;;;;23.60;43.80;101246.09;5075395;28;45372;-73
2022/10/14 01:00:37;;;;;;;;;1.00;1.00;;;;;23.60;44.05;101245.28;5075606;27;45515;-73
2022/10/14 01:03:16;;;;;;;;;2.00;2.00;;;;;23.59;44.14;101246.28;5075367;27;47238;-73
2022/10/14 01:05:59;;;;;;;;;1.00;1.00;;;;;23.60;44.11;101245.28;5075204;28;45528;-73
2022/10/14 01:08:33;;;;;;;;;1.00;1.00;;;;;23.57;43.83;101241.16;5075174;27;45434;-73
2022/10/14 01:11:09;;;;;;;;;1.00;1.00;;;;;23.47;44.19;101224.63;5075054;27;45362;-73
2022/10/14 01:13:41;;;;;;;;;3.67;1.00;;;;;23.60;44.01;101239.97;5075064;27;46315;-72
2022/10/14 01:16:17;;;;;;;;;2.00;2.00;;;;;23.49;44.13;101234.09;5075235;27;45416;-73
2022/10/14 01:18:57;;;;;;;;;2.67;1.00;;;;;23.59;44.11;101248.94;5075107;27;45409;-73
2022/10/14 01:21:44;;;;;;;;;2.00;2.00;;;;;23.59;43.96;101241.81;5061250;28;45429;-73
2022/10/14 01:24:33;;;;;;;;;1.33;1.33;;;;;23.59;44.18;101243.63;5074450;27;46316;-72
2022/10/14 01:27:06;;;;;;;;;1.00;1.00;;;;;23.59;43.90;101243.63;5061353;28;45469;-73
2022/10/14 01:29:44;;;;;;;;;2.00;2.00;;;;;23.59;44.24;101233.00;5075207;27;45369;-73
2022/10/14 01:32:14;;;;;;;;;2.00;2.00;;;;;23.57;44.16;101230.53;5061991;28;45744;-73
2022/10/14 01:34:51;;;;;;;;;1.33;1.33;;;;;23.59;44.01;101227.69;5090587;27;46233;-73
2022/10/14 01:37:22;;;;;;;;;2.00;2.00;;;;;23.59;44.07;101231.19;5078337;27;45466;-73
2022/10/14 01:39:53;;;;;;;;;1.33;1.00;;;;;23.57;44.36;101227.06;5078160;27;45335;-73
2022/10/14 01:42:24;;;;;;;;;2.00;2.00;;;;;23.53;43.82;101215.94;5078704;27;45369;-72
2022/10/14 01:45:00;;;;;;;;;2.00;2.00;;;;;23.60;44.12;101224.84;5077969;27;46175;-73
2022/10/14 01:47:29;;;;;;;;;3.00;2.00;;;;;23.61;43.65;101233.63;5077950;27;45371;-73
2022/10/14 01:50:11;;;;;;;;;1.00;1.00;;;;;23.60;44.02;101224.84;5078305;27;45456;-72
2022/10/14 01:52:43;;;;;;;;;1.33;1.33;;;;;23.60;44.21;101222.19;5065452;28;45374;-73
2022/10/14 01:55:16;;;;;;;;;3.67;2.67;;;;;23.60;44.03;101222.19;5077197;27;46192;-73
2022/10/14 01:57:44;;;;;;;;;1.67;1.67;;;;;23.59;44.28;101217.91;5065563;28;45416;-73
2022/10/14 02:00:10;;;;;;;;;2.67;2.00;;;;;23.61;44.16;101220.34;5077987;27;45390;-73
2022/10/14 02:02:36;;;;;;;;;2.67;2.00;;;;;23.59;43.79;101212.59;5077846;27;45588;-73
2022/10/14 02:05:07;;;;;;;;;1.00;1.00;;;;;23.60;43.81;101219.53;5077858;27;46279;-73
2022/10/14 02:07:43;;;;;;;;;1.00;1.00;;;;;23.60;44.31;101216.06;5077426;27;45368;-73
2022/10/14 02:10:35;;;;;;;;;1.00;1.00;;;;;23.61;44.36;101220.34;5078070;27;45337;-73
2022/10/14 02:13:13;;;;;;;;;2.67;2.00;;;;;23.59;44.24;101209.94;5078091;27;45339;-73
2022/10/14 02:16:05;;;;;;;;;1.00;1.00;;;;;23.60;43.70;101218.72;5077641;27;46416;-73
2022/10/14 02:18:33;;;;;;;;;1.00;1.00;;;;;23.59;44.21;101209.09;5077577;27;45345;-73
2022/10/14 02:21:21;;;;;;;;;1.00;1.00;;;;;23.60;44.15;101202.78;5077687;27;45357;-72
2022/10/14 02:24:08;;;;;;;;;1.00;1.00;;;;;23.59;44.13;101198.47;5077863;27;45425;-73
2022/10/14 02:26:35;;;;;;;;;1.33;1.33;;;;;23.59;43.84;101198.47;5063051;27;46243;-73
2022/10/14 02:29:03;;;;;;;;;3.00;3.00;;;;;23.48;44.43;101175.81;5077838;27;45485;-73
2022/10/14 02:31:31;;;;;;;;;3.00;1.33;;;;;23.59;44.35;101190.50;5077520;27;45341;-73
2022/10/14 02:34:00;;;;;;;;;2.00;2.00;;;;;23.59;44.41;101201.97;5077584;27;45374;-73
2022/10/14 02:36:27;;;;;;;;;1.67;1.67;;;;;23.58;43.88;101191.50;5076789;27;47089;-73
2022/10/14 02:38:56;;;;;;;;;2.33;2.33;;;;;23.58;44.11;101194.16;5077683;27;45200;-73
2022/10/14 02:41:26;;;;;;;;;1.00;1.00;;;;;23.58;44.15;101189.69;5077437;27;45389;-73
2022/10/14 02:43:51;;;;;;;;;1.33;1.33;;;;;23.58;43.82;101195.00;5077236;27;45502;-73
2022/10/14 02:46:20;;;;;;;;;2.00;2.00;;;;;23.58;44.12;101194.16;5077202;27;46940;-72
2022/10/14 02:48:45;;;;;;;;;3.33;2.67;;;;;23.58;44.21;101188.84;5076660;27;45303;-73
2022/10/14 02:51:11;;;;;;;;;1.00;1.00;;;;;23.58;44.08;101188.84;5077053;27;45305;-73
2022/10/14 02:53:36;;;;;;;;;1.00;1.00;;;;;23.58;44.23;101180.88;5077474;27;45404;-73
2022/10/14 02:56:01;;;;;;;;;2.00;2.00;;;;;23.58;44.44;101180.88;5076922;27;47832;-73
2022/10/14 02:58:27;;;;;;;;;1.00;1.00;;;;;23.59;43.95;101174.56;5077045;27;45437;-73
2022/10/14 03:00:52;;;;;;;;;1.67;1.33;;;;;23.59;44.34;101169.25;5076987;27;45797;-72
2022/10/14 03:03:17;;;;;;;;;3.00;1.00;;;;;23.60;44.05;101178.88;5076834;27;47375;-73
2022/10/14 03:05:43;;;;;;;;;1.33;1.33;;;;;23.59;44.26;101170.09;5076456;27;53884;-72
2022/10/14 03:08:08;;;;;;;;;4.00;2.00;;;;;23.59;44.00;101159.47;5077103;27;45376;-73
2022/10/14 03:10:33;;;;;;;;;3.33;2.00;;;;;23.60;44.14;101163.75;5076787;27;45314;-72
2022/10/14 03:12:59;;;;;;;;;1.67;1.67;;;;;23.60;43.81;101162.94;5077282;27;45416;-72
2022/10/14 03:15:24;;;;;;;;;1.33;1.33;;;;;23.61;43.79;101160.09;5076890;27;45368;-73
2022/10/14 03:17:49;;;;;;;;;2.00;2.00;;;;;23.60;44.29;101154.97;5076652;27;45385;-73
2022/10/14 03:20:15;;;;;;;;;2.00;2.00;;;;;23.60;44.22;101162.94;5076876;27;45331;-73
2022/10/14 03:22:41;;;;;;;;;1.00;1.00;;;;;23.60;44.03;101152.31;5076572;27;45405;-73
2022/10/14 03:25:06;;;;;;;;;1.67;1.67;;;;;23.60;44.20;101160.28;5071344;27;46229;-73
2022/10/14 03:27:32;;;;;;;;;1.33;1.00;;;;;23.61;43.99;101156.63;5067706;27;45298;-73
2022/10/14 03:29:57;;;;;;;;;1.00;1.00;;;;;23.59;43.89;101153.31;5076698;27;45298;-73
2022/10/14 03:32:23;;;;;;;;;2.00;2.00;;;;;23.60;43.91;101161.09;5076921;27;45231;-73
2022/10/14 03:34:48;;;;;;;;;2.00;2.00;;;;;23.59;44.13;101158.63;5076010;27;45751;-73
2022/10/14 03:37:13;;;;;;;;;4.33;2.00;;;;;23.60;44.04;101160.28;5076624;27;45596;-73
2022/10/14 03:39:39;;;;;;;;;1.00;1.00;;;;;23.59;44.21;101162.13;5076820;27;45239;-73
2022/10/14 03:42:04;;;;;;;;;1.50;1.50;;;;;23.54;44.23;101151.22;5074949;27;45346;-73
2022/10/14 03:44:30;;;;;;;;;2.33;2.00;;;;;23.59;44.11;101158.63;5076179;27;52422;-73
2022/10/14 03:46:55;;;;;;;;;2.00;2.00;;;;;23.58;44.59;101152.50;5076419;27;45247;-73
2022/10/14 03:49:20;;;;;;;;;0.33;0.33;;;;;23.59;44.04;101161.28;5076019;27;45472;-72
2022/10/14 03:51:45;;;;;;;;;4.00;2.00;;;;;23.55;44.61;101157.38;5076452;27;45366;-73
2022/10/14 03:54:11;;;;;;;;;3.00;2.00;;;;;23.58;44.11;101157.81;5076257;27;46037;-73
2022/10/14 03:56:36;;;;;;;;;2.00;1.67;;;;;23.57;44.22;101150.88;5076000;27;48116;-73
2022/10/14 03:59:02;;;;;;;;;1.00;1.00;;;;;23.58;44.47;101162.28;5075252;27;45353;-73
2022/10/14 04:01:27;;;;;;;;;2.67;2.00;;;;;23.58;44.07;101154.31;5076011;27;45422;-73
2022/10/14 04:03:52;;;;;;;;;1.33;1.00;;;;;23.57;44.02;101148.19;5075316;27;46179;-72
2022/10/14 04:06:18;;;;;;;;;2.67;2.33;;;;;23.57;44.32;101147.38;5076106;27;45413;-73
2022/10/14 04:08:43;;;;;;;;;1.00;1.00;;;;;23.55;44.01;101139.56;5091069;27;45480;-73
2022/10/14 04:11:09;;;;;;;;;2.00;2.00;;;;;23.57;43.93;101145.56;5076115;27;45434;-73
2022/10/14 04:13:35;;;;;;;;;1.67;1.67;;;;;23.50;44.13;101136.63;5075992;27;46857;-73
2022/10/14 04:16:09;;;;;;;;;2.00;2.00;;;;;23.50;44.34;101131.34;5075910;27;45685;-73
2022/10/14 04:18:35;;;;;;;;;1.33;1.33;;;;;23.57;44.44;101139.41;5075737;27;45374;-73
2022/10/14 04:21:02;;;;;;;;;1.33;1.33;;;;;23.58;44.30;101141.03;5075626;27;45391;-72
2022/10/14 04:23:28;;;;;;;;;1.00;1.00;;;;;23.58;44.16;101146.34;5075434;27;46777;-72
2022/10/14 04:25:53;;;;;;;;;1.67;1.67;;;;;23.58;44.08;101147.19;5063640;27;45610;-73
2022/10/14 04:28:18;;;;;;;;;0.00;0.00;;;;;23.56;43.98;101143.88;5073451;28;45616;-73
2022/10/14 04:30:44;;;;;;;;;1.00;1.00;;;;;23.59;44.05;101150.66;5075756;27;45465;-73
2022/10/14 04:33:09;;;;;;;;;1.00;1.00;;;;;23.59;44.22;101155.97;5075105;27;45252;-73
2022/10/14 04:35:34;;;;;;;;;1.00;1.00;;;;;23.58;44.27;101155.16;5091526;27;45276;-72
2022/10/14 04:38:00;;;;;;;;;2.67;1.67;;;;;23.59;44.52;101143.53;5075620;27;45549;-73
2022/10/14 04:40:25;;;;;;;;;2.00;2.00;;;;;23.58;44.37;101139.22;5075622;27;45421;-72
2022/10/14 04:42:57;;;;;;;;;2.00;2.00;;;;;23.58;44.15;101143.69;5075486;27;46094;-73
2022/10/14 04:45:23;;;;;;;;;1.00;1.00;;;;;23.58;44.29;101144.53;5075272;27;45359;-73
2022/10/14 04:47:49;;;;;;;;;1.00;1.00;;;;;23.54;44.19;101132.63;5075234;27;45387;-73
2022/10/14 04:50:14;;;;;;;;;3.00;1.00;;;;;23.58;44.01;101125.09;5075533;27;45556;-73
2022/10/14 04:52:40;;;;;;;;;2.00;2.00;;;;;23.36;44.03;101093.13;5075492;27;46306;-73
2022/10/14 04:55:06;;;;;;;;;2.00;2.00;;;;;23.58;44.16;101122.44;5075589;27;45299;-73
2022/10/14 04:57:31;;;;;;;;;2.67;1.00;;;;;23.58;44.41;101120.63;5061379;27;45331;-72
2022/10/14 04:59:56;;;;;;;;;1.00;1.00;;;;;23.57;44.43;101116.34;5075567;27;45425;-73
2022/10/14 05:02:21;;;;;;;;;1.00;1.00;;;;;23.58;44.42;101114.47;5074757;27;51267;-73
2022/10/14 05:04:47;;;;;;;;;1.67;1.67;;;;;23.56;44.08;101106.72;5074905;27;48849;-73
2022/10/14 05:07:12;;;;;;;;;2.00;2.00;;;;;23.58;44.19;101117.13;5075257;27;45385;-73
2022/10/14 05:09:37;;;;;;;;;1.00;0.00;;;;;23.58;43.99;101117.13;5075391;27;45349;-73
2022/10/14 05:12:03;;;;;;;;;1.00;1.00;;;;;23.57;44.13;101112.84;5078762;27;45374;-73
2022/10/14 05:14:28;;;;;;;;;1.00;1.00;;;;;23.58;44.30;101125.09;5078800;27;45401;-73
2022/10/14 05:16:53;;;;;;;;;2.00;1.00;;;;;23.57;44.62;101118.16;5078620;27;45296;-73
2022/10/14 05:19:19;;;;;;;;;1.00;1.00;;;;;23.58;44.46;101120.63;5078212;27;49152;-73
2022/10/14 05:21:44;;;;;;;;;1.67;1.67;;;;;23.57;44.19;101121.66;5078963;27;46161;-73
2022/10/14 05:24:09;;;;;;;;;1.00;1.00;;;;;23.57;44.01;101118.16;5078465;27;45393;-73
2022/10/14 05:26:35;;;;;;;;;1.67;1.67;;;;;23.57;44.29;101124.31;5063999;28;49225;-73
2022/10/14 05:29:00;;;;;;;;;1.67;1.67;;;;;23.57;44.24;101119.00;5094595;27;45391;-72
2022/10/14 05:31:26;;;;;;;;;1.33;1.33;;;;;23.56;43.94;101116.50;5077808;27;46080;-72
2022/10/14 05:33:51;;;;;;;;;2.00;0.67;;;;;23.57;44.22;101123.47;5078418;27;45359;-72
2022/10/14 05:36:16;;;;;;;;;1.00;0.00;;;;;23.57;44.33;101116.34;5078601;27;45618;-73
2022/10/14 05:38:42;;;;;;;;;0.67;0.67;;;;;23.57;44.51;101120.81;5078447;27;45300;-72
2022/10/14 05:41:08;;;;;;;;;1.00;1.00;;;;;23.59;44.16;101116.13;5078436;27;46120;-73
2022/10/14 05:43:33;;;;;;;;;2.00;2.00;;;;;23.58;44.47;101110.00;5078313;27;45316;-72
2022/10/14 05:45:59;;;;;;;;;0.00;0.00;;;;;23.58;44.26;101115.31;5077877;27;45264;-73
2022/10/14 05:48:24;;;;;;;;;1.00;1.00;;;;;23.59;44.22;101113.47;5078197;27;45447;-73
2022/10/14 05:50:50;;;;;;;;;0.33;0.33;;;;;23.59;44.21;101116.13;5078247;27;46305;-73
2022/10/14 05:53:15;;;;;;;;;2.00;1.00;;;;;23.58;44.06;101123.28;5078239;27;45587;-73
2022/10/14 05:55:40;;;;;;;;;1.00;1.00;;;;;23.57;44.37;101120.81;5078389;27;45303;-73
2022/10/14 05:58:06;;;;;;;;;1.00;1.00;;;;;23.59;44.23;101114.31;5078276;27;45635;-72
2022/10/14 06:00:32;;;;;;;;;1.00;1.00;;;;;23.60;44.15;101117.81;5077401;27;46297;-73
2022/10/14 06:02:57;;;;;;;;;0.67;0.67;;;;;23.59;43.84;101116.97;5077857;27;45474;-72
2022/10/14 06:05:23;;;;;;;;;1.00;1.00;;;;;23.59;43.88;101109.00;5077836;27;45491;-73
2022/10/14 06:07:48;;;;;;;;;1.33;1.00;;;;;23.59;44.24;101119.63;5077990;27;45446;-73
2022/10/14 06:10:14;;;;;;;;;1.00;1.00;;;;;23.60;43.88;101117.81;5077585;27;46182;-74
2022/10/14 06:12:39;;;;;;;;;1.00;1.00;;;;;23.61;44.25;101122.09;5077388;27;45569;-73
2022/10/14 06:15:05;;;;;;;;;0.67;0.33;;;;;23.60;44.30;101121.25;5077604;27;45512;-71
2022/10/14 06:17:30;;;;;;;;;3.00;2.00;;;;;23.60;44.43;101120.47;5077699;27;45450;-72
2022/10/14 06:19:56;;;;;;;;;1.00;1.00;;;;;23.60;44.49;101123.91;5077420;27;45370;-72
2022/10/14 06:22:21;;;;;;;;;1.67;1.00;;;;;23.61;44.56;101119.44;5057360;27;45652;-71
2022/10/14 06:24:46;;;;;;;;;2.00;2.00;;;;;23.62;44.48;101121.91;5059727;27;45499;-72
2022/10/14 06:27:11;;;;;;;;;1.33;0.67;;;;;23.65;44.30;101122.56;5057365;27;45809;-72
2022/10/14 06:29:37;;;;;;;;;1.00;1.00;;;;;23.64;44.48;101127.03;5057509;27;47113;-73
2022/10/14 06:32:07;;;;;;;;;1.00;1.00;;;;;23.61;44.68;101119.44;5068669;27;45423;-73
2022/10/14 06:34:33;;;;;;;;;1.00;1.00;;;;;23.65;44.38;101126.03;5063872;27;45536;-72
2022/10/14 06:37:00;;;;;;;;;1.00;1.00;;;;;23.65;44.87;101127.88;5061203;27;45298;-69
2022/10/14 06:39:25;;;;;;;;;0.33;0.33;;;;;23.56;44.47;101109.38;5055572;27;46401;-74
2022/10/14 06:41:51;;;;;;;;;1.00;1.00;;;;;23.65;44.54;101123.38;5059736;27;45619;-73
2022/10/14 06:44:16;;;;;;;;;1.33;1.00;;;;;23.66;44.94;101117.03;5068735;28;45404;-75
2022/10/14 06:46:42;;;;;;;;;0.67;0.67;;;;;23.66;44.71;101119.69;5059377;27;45376;-73
2022/10/14 06:49:08;;;;;;;;;2.00;1.00;;;;;23.59;44.79;101114.31;5072931;27;46989;-73
2022/10/14 06:51:33;;;;;;;;;2.33;2.33;;;;;23.68;45.08;101122.19;5061573;27;45382;-73
2022/10/14 06:53:59;;;;;;;;;1.00;1.00;;;;;23.67;44.46;101117.88;5057372;27;45418;-73
2022/10/14 06:56:24;;;;;;;;;1.00;1.00;;;;;23.67;44.75;101125.84;5064039;27;45526;-73
2022/10/14 06:58:56;;;;;;;;;2.00;1.00;;;;;23.58;44.51;101107.34;5065399;27;45342;-73
2022/10/14 07:01:22;;;;;;;;;1.00;1.00;;;;;23.61;44.86;101114.13;5058113;27;45408;-73
2022/10/14 07:03:48;;;;;;;;;1.00;1.00;;;;;23.57;44.65;101107.53;5064683;27;45227;-73
2022/10/14 07:06:14;;;;;;;;;3.00;1.00;;;;;23.65;45.07;101126.03;5056687;27;45434;-73
2022/10/14 07:08:40;;;;;;;;;0.33;0.33;;;;;23.63;44.73;101117.41;5057944;27;46383;-73
2022/10/14 07:11:06;;;;;;;;;2.33;2.33;;;;;23.61;44.90;101119.44;5056346;27;45354;-73
2022/10/14 07:13:33;;;;;;;;;1.67;1.00;;;;;23.63;45.04;101123.53;5061611;27;45329;-73
2022/10/14 07:15:58;;;;;;;;;2.00;1.00;;;;;23.63;45.15;101125.38;5056311;27;45410;-73
2022/10/14 07:18:24;;;;;;;;;1.00;1.00;;;;;23.61;44.93;101125.56;5056362;27;45918;-73
2022/10/14 07:20:49;;;;;;;;;2.67;1.00;;;;;23.62;45.48;101129.06;5055976;27;45265;-73
2022/10/14 07:23:14;;;;;;;;;2.00;2.00;;;;;23.61;45.12;101125.56;5059978;28;45713;-74
2022/10/14 07:25:39;;;;;;;;;3.00;3.00;;;;;23.60;45.41;101125.75;5056518;27;45346;-73
2022/10/14 07:28:05;;;;;;;;;1.00;1.00;;;;;23.61;45.53;101135.38;5071678;27;46130;-73
2022/10/14 07:30:31;;;;;;;;;2.00;2.00;;;;;23.60;44.92;101133.72;5076302;27;45441;-71
2022/10/14 07:32:58;;;;;;;;;1.67;1.67;;;;;23.60;44.90;101139.84;5076475;27;45472;-71
2022/10/14 07:35:25;;;;;;;;;3.00;1.67;;;;;23.52;45.08;101121.38;5076082;27;45265;-71
2022/10/14 07:37:50;;;;;;;;;1.33;1.33;;;;;23.63;45.38;101138.66;5076298;27;47214;-72
2022/10/14 07:40:16;;;;;;;;;4.67;2.67;;;;;23.62;45.03;101147.66;5076042;27;45402;-72
2022/10/14 07:42:41;;;;;;;;;1.33;1.33;;;;;23.63;45.42;101149.28;5076158;27;45572;-72
2022/10/14 07:45:08;;;;;;;;;2.67;2.67;;;;;23.62;45.07;101151.13;5076293;27;45430;-72
2022/10/14 07:47:33;;;;;;;;;4.67;3.00;;;;;23.62;45.24;101137.84;5076313;27;47215;-72
2022/10/14 07:50:00;;;;;;;;;1.00;1.00;;;;;23.63;45.17;101141.31;5076239;27;45351;-72
2022/10/14 07:52:26;;;;;;;;;2.00;2.00;;;;;23.59;44.96;101137.38;5109251;27;45439;-73
2022/10/14 07:54:52;;;;;;;;;1.00;1.00;;;;;23.61;45.08;101124.75;5075753;27;45502;-72
2022/10/14 07:57:17;;;;;;;;;1.67;1.00;;;;;23.64;45.07;101121.72;5075807;27;45394;-72
2022/10/14 07:59:42;;;;;;;;;3.33;1.00;;;;;23.64;45.37;101124.38;5076109;28;45323;-73
2022/10/14 08:02:10;;;;;;;;;1.00;1.00;;;;;23.65;45.29;101130.53;5076027;27;45247;-72
2022/10/14 08:04:35;;;;;;;;;2.00;2.00;;;;;23.64;45.46;101135.00;5076159;27;45358;-72
2022/10/14 08:07:02;;;;;;;;;2.67;1.00;;;;;23.65;44.69;101144.63;5075537;27;56796;-72
2022/10/14 08:09:28;;;;;;;;;1.00;1.00;;;;;23.64;45.10;101148.28;5075421;27;45452;-73
2022/10/14 08:11:54;;;;;;;;;2.67;2.67;;;;;23.63;45.04;101152.75;5075862;27;45339;-72
2022/10/14 08:14:19;;;;;;;;;1.00;1.00;;;;;23.65;45.14;101151.78;5075775;27;45340;-72
2022/10/14 08:16:45;;;;;;;;;2.00;2.00;;;;;23.64;45.01;101156.25;5075970;27;46129;-72
2022/10/14 08:19:11;;;;;;;;;1.00;1.00;;;;;23.62;45.03;101143.16;5075515;27;45361;-72
2022/10/14 08:21:36;;;;;;;;;2.00;2.00;;;;;23.65;45.30;101147.28;5075810;27;45456;-72
2022/10/14 08:24:02;;;;;;;;;0.67;0.67;;;;;23.65;45.24;101143.81;5075339;27;45280;-72
2022/10/14 08:26:30;;;;;;;;;2.00;2.00;;;;;23.64;45.28;101135.00;5061020;27;46811;-72
2022/10/14 08:28:57;;;;;;;;;0.00;0.00;;;;;23.63;45.14;101123.53;5075794;27;45362;-72
2022/10/14 08:31:23;;;;;;;;;1.33;1.33;;;;;23.56;45.00;101112.03;5075470;28;45445;-73
2022/10/14 08:33:48;;;;;;;;;2.00;2.00;;;;;23.63;45.06;101122.72;5075498;28;45497;-72
2022/10/14 08:36:15;;;;;;;;;1.67;1.67;;;;;23.61;45.19;101114.94;5075324;27;47277;-72
2022/10/14 08:38:40;;;;;;;;;1.00;1.00;;;;;23.65;45.03;101123.38;5074930;27;45373;-72
2022/10/14 08:41:15;;;;;;;;;3.33;0.67;;;;;23.65;45.23;101126.03;5075570;27;45501;-72
2022/10/14 08:43:47;;;;;;;;;2.33;2.00;;;;;23.66;45.10;101114.38;5075794;27;45366;-73
2022/10/14 08:46:26;;;;;;;;;3.00;1.00;;;;;23.67;45.12;101110.72;5074647;27;45348;-72
2022/10/14 08:49:05;;;;;;;;;1.00;1.00;;;;;23.67;44.64;101112.56;5075213;27;45265;-72
2022/10/14 08:51:31;;;;;;;;;3.00;1.00;;;;;23.68;44.65;101111.56;5075376;27;45252;-70
2022/10/14 08:54:07;;;;;;;;;1.67;1.00;;;;;23.68;44.88;101117.69;5074831;27;45383;-70
2022/10/14 08:56:36;;;;;;;;;3.00;1.00;;;;;23.68;44.56;101138.13;5074974;27;46416;-71
2022/10/14 08:59:09;;;;;;;;;1.33;1.33;;;;;23.59;45.25;101124.94;5074912;27;45308;-69
2022/10/14 09:01:43;;;;;;;;;1.00;1.00;;;;;23.69;44.60;101147.72;5075120;27;45342;-70
2022/10/14 09:04:13;;;;;;;;;1.00;1.00;;;;;23.61;44.89;101140.69;5074853;27;45402;-70
2022/10/14 09:06:42;;;;;;;;;2.00;2.00;;;;;23.70;45.34;101149.38;5074822;27;46107;-71
2022/10/14 09:09:22;;;;;;;;;1.00;1.00;;;;;23.70;45.03;101136.09;5074506;27;45464;-70
2022/10/14 09:12:05;;;;;;;;;0.33;0.33;;;;;23.70;44.83;101147.56;5074994;27;45295;-70
2022/10/14 09:14:38;;;;;;;;;2.33;1.00;;;;;23.69;44.75;101148.56;5074575;27;45472;-71
2022/10/14 09:17:21;;;;;;;;;1.00;1.00;;;;;23.70;44.77;101150.22;5074971;27;45295;-71
2022/10/14 09:19:53;;;;;;;;;2.00;2.00;;;;;23.69;45.37;101153.03;5061961;28;45324;-71
2022/10/14 09:22:18;;;;;;;;;1.67;1.00;;;;;23.69;45.11;101153.88;5074712;27;45328;-71
2022/10/14 09:24:47;;;;;;;;;1.67;1.67;;;;;23.70;45.03;101160.84;5072560;27;45290;-71
2022/10/14 09:27:16;;;;;;;;;0.33;0.33;;;;;23.70;44.72;101154.69;5062862;28;46225;-71
2022/10/14 09:29:46;;;;;;;;;1.00;1.00;;;;;23.67;44.69;101149.75;5074690;27;45426;-70
2022/10/14 09:32:17;;;;;;;;;1.00;1.00;;;;;23.71;45.14;101158.97;5074908;27;45303;-71
2022/10/14 09:34:49;;;;;;;;;1.00;1.00;;;;;23.64;44.94;101135.00;5074695;27;45414;-71
2022/10/14 09:37:28;;;;;;;;;1.00;0.67;;;;;23.70;45.21;101139.59;5073968;27;46250;-71
2022/10/14 09:39:58;;;;;;;;;1.67;1.00;;;;;23.70;44.74;101134.28;5074550;27;45300;-70
2022/10/14 09:42:34;;;;;;;;;1.00;1.00;;;;;23.71;44.98;101129.75;5074617;27;46349;-71
2022/10/14 09:45:21;;;;;;;;;3.00;1.67;;;;;23.68;44.91;101123.00;5074064;27;45495;-70
2022/10/14 09:47:55;;;;;;;;;1.67;1.00;;;;;23.70;45.35;101121.00;5063905;28;46204;-71
2022/10/14 09:50:29;;;;;;;;;1.00;0.00;;;;;23.70;45.03;101112.19;5060278;27;45356;-71
2022/10/14 09:53:00;;;;;;;;;1.00;1.00;;;;;23.70;45.29;101107.72;5074372;27;45366;-71
2022/10/14 09:55:26;;;;;;;;;2.00;2.00;;;;;23.71;45.27;101096.06;5074060;27;45331;-71
2022/10/14 09:58:07;;;;;;;;;2.67;1.67;;;;;23.70;44.82;101082.97;5075591;27;46316;-71
2022/10/14 10:00:36;;;;;;;;;1.00;1.00;;;;;23.61;45.07;101072.44;5077691;27;45298;-71
2022/10/14 10:03:02;;;;;;;;;1.67;1.00;;;;;23.72;44.94;101080.94;5078110;27;45525;-71
2022/10/14 10:05:31;;;;;;;;;1.00;1.00;;;;;23.70;45.10;101078.50;5077102;27;45413;-70
2022/10/14 10:08:05;;;;;;;;;1.00;1.00;;;;;23.72;45.09;101076.47;5077571;27;45461;-71
2022/10/14 10:10:31;;;;;;;;;1.00;1.00;;;;;23.73;45.25;101091.38;5077129;27;45299;-71
2022/10/14 10:12:57;;;;;;;;;1.67;1.67;;;;;23.73;45.04;101096.69;5077853;27;45357;-71
2022/10/14 10:15:23;;;;;;;;;1.00;1.00;;;;;23.73;45.05;101094.03;5077775;27;45235;-71
2022/10/14 10:17:50;;;;;;;;;2.00;1.00;;;;;23.74;45.23;101098.34;5077218;27;45326;-71
2022/10/14 10:20:35;;;;;;;;;4.00;1.33;;;;;23.74;45.25;101098.34;5077166;27;45408;-71
2022/10/14 10:23:24;;;;;;;;;1.67;1.67;;;;;23.77;45.00;101088.34;5077540;27;45438;-71
2022/10/14 10:25:50;;;;;;;;;1.00;1.00;;;;;23.76;44.92;101071.59;5066210;27;45550;-71
2022/10/14 10:28:25;;;;;;;;;1.33;1.33;;;;;23.77;44.90;101064.44;5074389;27;46091;-71
2022/10/14 10:31:03;;;;;;;;;1.00;1.00;;;;;23.76;44.87;101066.28;5077379;27;45485;-71
2022/10/14 10:33:52;;;;;;;;;0.67;0.67;;;;;23.76;45.23;101062.81;5077290;27;45302;-70
2022/10/14 10:36:36;;;;;;;;;2.67;1.00;;;;;23.77;45.21;101056.47;5077122;27;45354;-71
2022/10/14 10:39:18;;;;;;;;;0.00;0.00;;;;;23.77;44.77;101056.47;5064710;27;47157;-71
2022/10/14 10:42:02;;;;;;;;;0.67;0.67;;;;;23.77;45.00;101057.31;5076882;27;45349;-71
2022/10/14 10:44:31;;;;;;;;;0.67;0.67;;;;;23.78;44.74;101052.81;5077394;27;45298;-71
2022/10/14 10:47:18;;;;;;;;;1.00;1.00;;;;;23.78;45.08;101047.50;5077140;27;45386;-71
2022/10/14 10:49:49;;;;;;;;;1.00;1.00;;;;;23.78;44.48;101048.34;5076731;27;45413;-71
2022/10/14 10:52:42;;;;;;;;;2.00;1.00;;;;;23.79;45.03;101049.13;5076890;27;45801;-71
2022/10/14 10:55:10;;;;;;;;;1.00;1.00;;;;;23.79;44.89;101033.19;5076120;27;45637;-70
2022/10/14 10:57:55;;;;;;;;;1.00;1.00;;;;;23.79;45.36;101027.88;5077021;27;45541;-71
2022/10/14 11:00:22;;;;;;;;;2.33;0.33;;;;;23.79;44.70;101036.69;5066521;27;47227;-70
2022/10/14 11:03:23;;;;;;;;;1.00;1.00;;;;;23.78;44.85;101026.25;5056070;28;45464;-71
2022/10/14 11:06:02;;;;;;;;;1.00;1.00;;;;;23.79;45.13;101034.03;5078224;27;45430;-71
2022/10/14 11:12:02;;;;;;;;;2.00;1.00;;;;;23.80;45.41;101009.13;5053330;28;45437;-72
2022/10/14 11:14:46;;;;;;;;;1.00;1.00;;;;;23.81;44.96;100986.84;5054074;28;45366;-71
2022/10/14 11:17:21;;;;;;;;;0.00;0.00;;;;;23.81;44.61;100972.75;5052302;28;45411;-72
2022/10/14 11:20:04;;;;;;;;;1.00;1.00;;;;;23.82;45.24;100969.91;5053611;28;45562;-71
2022/10/14 11:22:32;;;;;;;;;1.00;1.00;;;;;23.82;45.27;100967.25;5053172;28;47073;-71
2022/10/14 11:25:06;;;;;;;;;0.00;0.00;;;;;23.83;45.05;100974.22;5053948;28;45445;-71
2022/10/14 11:27:49;;;;;;;;;1.00;1.00;;;;;23.82;45.22;100963.75;5053649;28;45407;-71
2022/10/14 11:30:36;;;;;;;;;1.33;1.33;;;;;23.83;44.82;100962.75;5050880;28;45347;-71
2022/10/14 11:33:28;;;;;;;;;0.67;0.67;;;;;23.83;45.08;100950.28;5049106;28;46432;-71
2022/10/14 11:36:06;;;;;;;;;2.00;0.33;;;;;23.83;45.36;100939.66;5041551;28;45367;-71
2022/10/14 11:38:47;;;;;;;;;0.67;0.67;;;;;23.82;45.51;100948.63;5053383;28;45500;-71